Terminal Aerodrome Forecast
Issued by NWS

Home | Current Version | Previous Version | Text Only | Print | Product List | Glossary On
Versions: 1 2 3 4 5 6 7 8 9 10 11 12 13 14 15 16 17 18 19 20 21
000
FTUS44 KTSA 211500 AAA
TAFXNA
TAF AMD
KXNA 211524Z 2115/2212 35009KT P6SM VCSH SCT009 BKN050
      TEMPO 2115/2118 BKN009
     FM211800 02010KT P6SM SCT250
     FM220100 36005KT P6SM SKC=

USA.gov is the U.S. government's official web portal to all federal, state and local government web resources and services.